createdAt,value
2019-05-16T00:04:53.645Z,1.37
2019-05-16T00:09:58.996Z,1.27
2019-05-16T00:15:05.277Z,1.40
2019-05-16T00:20:09.870Z,1.30
2019-05-16T00:25:17.839Z,1.37
2019-05-16T00:30:22.020Z,1.33
2019-05-16T00:35:28.542Z,1.23
2019-05-16T00:40:32.873Z,1.30
2019-05-16T00:45:38.535Z,1.33
2019-05-16T00:50:43.278Z,1.30
2019-05-16T00:55:48.884Z,1.33
2019-05-16T01:00:53.461Z,1.40
2019-05-16T01:05:58.290Z,1.57
2019-05-16T01:11:03.054Z,1.40
2019-05-16T01:16:08.656Z,1.30
2019-05-16T01:21:13.609Z,1.40
2019-05-16T01:26:18.727Z,1.10
2019-05-16T01:31:24.468Z,1.10
2019-05-16T01:36:36.576Z,1.50
2019-05-16T01:41:38.045Z,1.20
2019-05-16T01:46:44.333Z,1.47
2019-05-16T01:51:49.913Z,1.20
2019-05-16T01:56:54.536Z,1.23
2019-05-16T02:02:00.888Z,1.53
2019-05-16T02:07:05.373Z,1.43
2019-05-16T02:12:10.818Z,1.30
2019-05-16T02:17:18.157Z,1.30
2019-05-16T02:22:21.828Z,1.33
2019-05-16T02:27:28.732Z,1.67
2019-05-16T02:32:33.449Z,1.27
2019-05-16T02:37:41.772Z,1.10
2019-05-16T02:42:45.297Z,1.13
2019-05-16T02:47:51.516Z,1.30
2019-05-16T02:52:56.154Z,1.23
2019-05-16T02:58:01.728Z,1.30
2019-05-16T03:03:06.287Z,1.50
2019-05-16T03:08:11.997Z,1.30
2019-05-16T03:13:16.916Z,1.50
2019-05-16T03:18:22.733Z,1.60
2019-05-16T03:23:27.278Z,1.30
2019-05-16T03:28:31.828Z,1.50
2019-05-16T03:33:43.375Z,1.47
2019-05-16T03:38:42.813Z,1.40
2019-05-16T03:43:50.725Z,1.57
2019-05-16T03:48:54.955Z,1.50
2019-05-16T03:54:02.604Z,1.10
2019-05-16T03:59:06.765Z,1.57
2019-05-16T04:04:12.010Z,1.50
2019-05-16T04:09:16.874Z,1.50
2019-05-16T04:14:22.267Z,1.67
2019-05-16T04:19:26.922Z,1.60
2019-05-16T04:24:31.818Z,1.30
2019-05-16T04:29:36.554Z,1.60
2019-05-16T04:34:41.911Z,1.30
2019-05-16T04:39:46.648Z,1.57
2019-05-16T04:44:51.753Z,1.43
2019-05-16T04:49:56.496Z,1.30
2019-05-16T04:55:01.152Z,2.70
2019-05-16T05:00:05.796Z,1.70
2019-05-16T05:05:12.649Z,1.20
2019-05-16T05:10:16.585Z,1.50
2019-05-16T05:15:22.671Z,1.87
2019-05-16T05:20:30.198Z,1.90
2019-05-16T05:25:33.918Z,1.70
2019-05-16T05:30:40.706Z,2.20
2019-05-16T05:35:46.105Z,1.83
2019-05-16T05:40:51.343Z,1.77
2019-05-16T05:46:00.646Z,2.20
2019-05-16T05:51:05.082Z,1.80
2019-05-16T05:56:11.261Z,1.40
2019-05-16T06:01:15.901Z,1.77
2019-05-16T06:06:20.993Z,1.83
2019-05-16T06:11:26.895Z,1.50
2019-05-16T06:16:32.159Z,1.77
2019-05-16T06:21:36.699Z,2.17
2019-05-16T06:26:41.397Z,2.70
2019-05-16T06:31:46.481Z,2.07
2019-05-16T06:36:51.943Z,2.33
2019-05-16T06:41:57.538Z,3.10
2019-05-16T06:47:16.065Z,3.30
2019-05-16T06:52:10.438Z,2.50
2019-05-16T06:57:17.338Z,2.10
2019-05-16T07:02:30.537Z,2.50
2019-05-16T07:07:32.076Z,2.33
2019-05-16T07:12:37.329Z,2.67
2019-05-16T07:17:41.970Z,2.60
2019-05-16T07:22:47.257Z,2.27
2019-05-16T07:27:51.868Z,2.90
2019-05-16T07:32:56.428Z,2.33
2019-05-16T07:38:01.509Z,2.47
2019-05-16T07:43:07.070Z,2.30
2019-05-16T07:48:11.685Z,2.40
2019-05-16T07:53:16.547Z,1.60
2019-05-16T07:58:22.474Z,1.70
2019-05-16T08:03:27.098Z,1.80
2019-05-16T08:08:34.397Z,2.23
2019-05-16T08:13:40.030Z,3.40
2019-05-16T08:18:45.509Z,2.17
2019-05-16T08:23:50.667Z,2.27
2019-05-16T08:28:56.688Z,1.90
2019-05-16T08:34:01.206Z,1.70
2019-05-16T08:39:07.106Z,2.13
2019-05-16T08:44:12.551Z,1.77
2019-05-16T08:49:22.190Z,2.17
2019-05-16T08:54:25.201Z,2.63
2019-05-16T08:59:33.903Z,1.80
2019-05-16T09:04:37.345Z,1.70
2019-05-16T09:09:49.383Z,2.13
2019-05-16T09:14:49.381Z,2.07
2019-05-16T09:19:54.237Z,2.27
2019-05-16T09:24:58.887Z,2.33
2019-05-16T09:30:07.046Z,2.27
2019-05-16T09:35:11.964Z,1.60
2019-05-16T09:40:17.359Z,1.87
2019-05-16T09:45:22.665Z,2.10
2019-05-16T09:50:28.367Z,2.53
2019-05-16T09:55:33.650Z,2.30
2019-05-16T10:00:39.298Z,1.80
2019-05-16T10:05:46.518Z,1.60
2019-05-16T10:10:51.617Z,2.20
2019-05-16T10:15:58.086Z,1.80
2019-05-16T10:21:02.745Z,2.20
2019-05-16T10:26:07.352Z,2.33
2019-05-16T10:31:11.918Z,1.90
2019-05-16T10:36:17.229Z,2.20
2019-05-16T10:41:22.927Z,2.20
2019-05-16T10:46:27.474Z,3.10
2019-05-16T10:51:34.090Z,2.23
2019-05-16T10:56:40.552Z,2.70
2019-05-16T11:01:47.131Z,2.13
2019-05-16T11:06:51.281Z,2.13
2019-05-16T11:11:57.110Z,1.60
2019-05-16T11:17:01.748Z,1.63
2019-05-16T11:22:07.476Z,2.03
2019-05-16T11:27:13.125Z,2.30
2019-05-16T11:32:17.781Z,2.13
2019-05-16T11:37:22.541Z,1.77
2019-05-16T11:42:27.956Z,1.50
2019-05-16T11:47:33.061Z,1.63
2019-05-16T11:52:40.692Z,2.07
2019-05-16T11:57:44.403Z,1.40
2019-05-16T12:02:50.014Z,1.50
2019-05-16T12:07:57.126Z,1.40
2019-05-16T12:13:00.883Z,1.20
2019-05-16T12:18:08.348Z,1.47
2019-05-16T12:23:12.634Z,1.20
2019-05-16T12:28:17.306Z,1.50
2019-05-16T12:33:22.766Z,0.70
2019-05-16T12:38:27.830Z,0.80
2019-05-16T12:43:48.235Z,0.90
2019-05-16T12:48:39.605Z,1.33
2019-05-16T12:53:47.511Z,1.10
2019-05-16T12:58:51.398Z,1.00
2019-05-16T13:03:56.538Z,1.00
2019-05-16T13:09:01.184Z,1.10
2019-05-16T13:14:11.346Z,0.90
2019-05-16T13:19:14.558Z,0.90
2019-05-16T13:24:19.285Z,0.80
2019-05-16T13:29:24.035Z,1.83
2019-05-16T13:34:28.741Z,0.80
2019-05-16T13:39:33.354Z,0.90
2019-05-16T13:44:38.356Z,1.20
2019-05-16T13:49:43.012Z,1.10
2019-05-16T13:54:48.414Z,1.00
2019-05-16T13:59:53.295Z,0.90
2019-05-16T14:04:58.023Z,0.80
2019-05-16T14:10:02.650Z,0.70
2019-05-16T14:15:08.442Z,0.87
2019-05-16T14:20:14.823Z,0.77
2019-05-16T14:25:21.464Z,1.17
2019-05-16T14:30:28.582Z,1.10
2019-05-16T14:35:32.417Z,1.37
2019-05-16T14:40:37.490Z,2.93
2019-05-16T14:45:42.276Z,5.87
2019-05-16T14:50:47.977Z,1.30
2019-05-16T14:55:53.695Z,0.80
2019-05-16T15:00:58.286Z,1.00
2019-05-16T15:06:02.934Z,1.20
2019-05-16T15:11:10.746Z,0.93
2019-05-16T15:16:18.611Z,0.83
2019-05-16T15:21:23.439Z,1.33
2019-05-16T15:26:28.139Z,1.30
2019-05-16T15:31:32.773Z,1.00
2019-05-16T15:36:38.115Z,1.03
2019-05-16T15:41:42.728Z,1.37
2019-05-16T15:46:47.905Z,1.20
2019-05-16T15:51:53.329Z,1.43
2019-05-16T15:57:01.193Z,2.40
2019-05-16T16:02:07.183Z,2.80
2019-05-16T16:07:13.681Z,1.40
2019-05-16T16:12:18.249Z,1.23
2019-05-16T16:17:22.800Z,1.90
2019-05-16T16:22:28.924Z,1.63
2019-05-16T16:27:33.563Z,1.93
2019-05-16T16:32:38.345Z,2.03
2019-05-16T16:37:43.247Z,2.57
2019-05-16T16:42:49.036Z,2.17
2019-05-16T16:47:57.155Z,2.60
2019-05-16T16:53:01.227Z,2.37
2019-05-16T16:58:09.591Z,2.93
2019-05-16T17:03:12.538Z,2.27
2019-05-16T17:08:17.169Z,2.73
2019-05-16T17:13:21.942Z,2.67
2019-05-16T17:18:27.600Z,3.10
2019-05-16T17:23:36.667Z,3.30
2019-05-16T17:28:41.014Z,2.80
2019-05-16T17:33:45.703Z,2.80
2019-05-16T17:38:50.605Z,2.67
2019-05-16T17:43:56.369Z,2.63
2019-05-16T17:49:02.400Z,2.50
2019-05-16T17:54:07.202Z,2.70
2019-05-16T17:59:13.112Z,2.73
2019-05-16T18:04:19.471Z,3.07
2019-05-16T18:09:27.563Z,2.90
2019-05-16T18:14:31.931Z,3.20
2019-05-16T18:19:37.333Z,3.37
2019-05-16T18:24:42.223Z,3.23
2019-05-16T18:29:47.124Z,3.20
2019-05-16T18:34:52.275Z,3.10
2019-05-16T18:39:58.109Z,3.10
2019-05-16T18:45:03.097Z,3.07
2019-05-16T18:50:08.000Z,2.93
2019-05-16T18:55:13.983Z,3.13
2019-05-16T19:00:19.534Z,3.27
2019-05-16T19:05:26.500Z,3.30
2019-05-16T19:10:31.983Z,3.30
2019-05-16T19:15:38.132Z,3.03
2019-05-16T19:20:43.351Z,3.17
2019-05-16T19:25:48.107Z,3.90
2019-05-16T19:30:52.699Z,3.20
2019-05-16T19:35:57.889Z,2.03
2019-05-16T19:41:03.543Z,3.80
2019-05-16T19:46:09.381Z,3.87
2019-05-16T19:51:16.334Z,3.90
2019-05-16T19:56:22.342Z,3.57
2019-05-16T20:01:27.403Z,3.67
2019-05-16T20:06:32.347Z,3.90
2019-05-16T20:11:37.073Z,4.43
2019-05-16T20:16:42.619Z,3.67
2019-05-16T20:21:49.093Z,4.27
2019-05-16T20:26:53.695Z,4.10
2019-05-16T20:31:59.421Z,4.00
2019-05-16T20:37:08.997Z,3.80
2019-05-16T20:42:12.340Z,3.70
2019-05-16T20:47:16.985Z,3.60
2019-05-16T20:52:22.057Z,3.87
2019-05-16T20:57:27.795Z,4.67
2019-05-16T21:02:32.987Z,3.77
2019-05-16T21:07:37.788Z,3.97
2019-05-16T21:12:42.398Z,4.20
2019-05-16T21:17:47.130Z,4.30
2019-05-16T21:22:51.665Z,4.57
2019-05-16T21:27:57.687Z,3.80
2019-05-16T21:33:02.233Z,3.80
2019-05-16T21:38:08.899Z,3.90
2019-05-16T21:43:13.197Z,3.83
2019-05-16T21:48:19.454Z,4.00
2019-05-16T21:53:24.120Z,3.60
2019-05-16T21:58:29.507Z,4.93
2019-05-16T22:03:36.579Z,4.03
2019-05-16T22:08:40.863Z,3.77
2019-05-16T22:13:46.496Z,3.87
2019-05-16T22:18:51.228Z,4.17
2019-05-16T22:23:57.060Z,4.00
2019-05-16T22:29:01.931Z,4.00
2019-05-16T22:34:07.583Z,4.17
2019-05-16T22:39:12.272Z,3.70
2019-05-16T22:44:17.622Z,3.97
2019-05-16T22:49:22.418Z,4.37
2019-05-16T22:54:28.084Z,4.07
2019-05-16T22:59:32.622Z,4.30
2019-05-16T23:04:37.293Z,4.60
2019-05-16T23:09:42.001Z,4.47
2019-05-16T23:14:46.550Z,4.03
2019-05-16T23:19:51.205Z,4.37
2019-05-16T23:24:56.989Z,4.40
2019-05-16T23:30:01.917Z,4.13
2019-05-16T23:35:07.013Z,4.03
2019-05-16T23:40:11.811Z,3.83
2019-05-16T23:45:18.009Z,4.03
2019-05-16T23:50:22.618Z,4.13
2019-05-16T23:55:28.521Z,4.00
